createdAt,value
2022-08-12T00:00:04.537Z,808.00
2022-08-12T00:01:05.320Z,808.00
2022-08-12T00:02:07.183Z,810.00
2022-08-12T00:03:06.956Z,808.00
2022-08-12T00:04:07.520Z,780.00
2022-08-12T00:05:07.704Z,809.00
2022-08-12T00:06:07.811Z,807.00
2022-08-12T00:07:08.340Z,807.00
2022-08-12T00:08:08.377Z,807.00
2022-08-12T00:09:08.944Z,810.00
2022-08-12T00:10:10.832Z,808.00
2022-08-12T00:11:12.634Z,811.00
2022-08-12T00:12:11.113Z,810.00
2022-08-12T00:13:13.060Z,810.00
2022-08-12T00:14:12.620Z,809.00
2022-08-12T00:15:14.221Z,804.00
2022-08-12T00:16:14.815Z,811.00
2022-08-12T00:17:14.279Z,809.00
2022-08-12T00:18:14.880Z,811.00
2022-08-12T00:19:15.734Z,811.00
2022-08-12T00:20:16.570Z,810.00
2022-08-12T00:21:18.249Z,811.00
2022-08-12T00:22:17.880Z,786.00
2022-08-12T00:23:18.598Z,807.00
2022-08-12T00:23:28.271Z,807.00
2022-08-12T00:24:29.135Z,806.00
2022-08-12T00:26:05.818Z,809.00
2022-08-12T00:26:30.524Z,809.00
2022-08-12T00:27:43.957Z,809.00
2022-08-12T00:28:31.922Z,811.00
2022-08-12T00:29:32.711Z,795.00
2022-08-12T00:30:34.750Z,796.00
2022-08-12T00:31:34.088Z,797.00
2022-08-12T00:32:36.056Z,806.00
2022-08-12T00:33:41.099Z,797.00
2022-08-12T00:34:36.278Z,807.00
2022-08-12T00:35:37.274Z,808.00
2022-08-12T00:36:37.821Z,807.00
2022-08-12T00:37:38.409Z,787.00
2022-08-12T00:38:40.128Z,797.00
2022-08-12T00:39:40.786Z,807.00
2022-08-12T00:40:40.632Z,806.00
2022-08-12T00:41:41.045Z,807.00
2022-08-12T00:42:43.287Z,807.00
2022-08-12T00:43:42.325Z,807.00
2022-08-12T00:44:44.072Z,805.00
2022-08-12T00:45:43.961Z,795.00
2022-08-12T00:46:44.500Z,808.00
2022-08-12T00:47:46.285Z,805.00
2022-08-12T00:48:46.985Z,807.00
2022-08-12T00:48:55.667Z,810.00
2022-08-12T00:49:56.174Z,811.00
2022-08-12T00:50:56.766Z,804.00
2022-08-12T00:51:57.391Z,793.00
2022-08-12T00:52:58.246Z,798.00
2022-08-12T00:53:58.746Z,807.00
2022-08-12T00:55:00.505Z,808.00
2022-08-12T00:56:01.203Z,812.00
2022-08-12T00:57:00.554Z,813.00
2022-08-12T00:58:01.318Z,812.00
2022-08-12T00:59:03.289Z,797.00
2022-08-12T01:00:03.052Z,812.00
2022-08-12T01:01:03.754Z,810.00
2022-08-12T01:02:11.985Z,807.00
2022-08-12T01:03:04.261Z,805.00
2022-08-12T01:04:05.604Z,760.00
2022-08-12T01:05:06.232Z,807.00
2022-08-12T01:06:06.724Z,806.00
2022-08-12T01:07:06.844Z,807.00
2022-08-12T01:08:07.492Z,806.00
2022-08-12T01:09:08.346Z,805.00
2022-08-12T01:10:09.244Z,807.00
2022-08-12T01:11:09.790Z,778.00
2022-08-12T01:12:08.853Z,807.00
2022-08-12T01:13:19.063Z,807.00
2022-08-12T01:13:20.506Z,806.00
2022-08-12T01:14:19.962Z,805.00
2022-08-12T01:15:21.872Z,784.00
2022-08-12T01:16:21.486Z,806.00
2022-08-12T01:17:22.494Z,800.00
2022-08-12T01:18:23.255Z,802.00
2022-08-12T01:19:24.148Z,805.00
2022-08-12T01:20:24.678Z,804.00
2022-08-12T01:21:24.123Z,802.00
2022-08-12T01:22:25.792Z,804.00
2022-08-12T01:23:26.379Z,794.00
2022-08-12T01:24:31.331Z,797.00
2022-08-12T01:25:26.976Z,784.00
2022-08-12T01:26:28.945Z,798.00
2022-08-12T01:27:29.444Z,778.00
2022-08-12T01:28:30.436Z,805.00
2022-08-12T01:29:33.249Z,798.00
2022-08-12T01:30:31.156Z,806.00
2022-08-12T01:31:32.876Z,807.00
2022-08-12T01:32:33.562Z,805.00
2022-08-12T01:33:34.465Z,807.00
2022-08-12T01:33:43.222Z,808.00
2022-08-12T01:34:43.287Z,762.00
2022-08-12T01:35:45.143Z,796.00
2022-08-12T01:36:44.388Z,701.00
2022-08-12T01:37:45.955Z,813.00
2022-08-12T01:38:46.722Z,799.00
2022-08-12T01:40:35.318Z,811.00
2022-08-12T01:40:47.274Z,810.00
2022-08-12T01:41:51.116Z,810.00
2022-08-12T01:42:48.507Z,812.00
2022-08-12T01:43:49.110Z,800.00
2022-08-12T01:44:50.992Z,796.00
2022-08-12T01:45:53.461Z,812.00
2022-08-12T01:46:51.089Z,812.00
2022-08-12T01:47:51.116Z,810.00
2022-08-12T01:48:51.965Z,811.00
2022-08-12T01:49:53.346Z,810.00
2022-08-12T01:50:54.127Z,808.00
2022-08-12T01:52:20.416Z,799.00
2022-08-12T01:52:53.912Z,798.00
2022-08-12T01:53:54.200Z,789.00
2022-08-12T01:54:54.200Z,795.00
2022-08-12T01:55:54.813Z,790.00
2022-08-12T01:56:54.935Z,799.00
2022-08-12T01:57:58.636Z,799.00
2022-08-12T01:58:55.555Z,799.00
2022-08-12T01:59:56.991Z,807.00
2022-08-12T02:00:07.156Z,807.00
2022-08-12T02:01:08.038Z,809.00
2022-08-12T02:02:08.043Z,806.00
2022-08-12T02:03:08.264Z,784.00
2022-08-12T02:04:08.868Z,810.00
2022-08-12T02:05:13.061Z,812.00
2022-08-12T02:06:10.051Z,798.00
2022-08-12T02:07:10.406Z,813.00
2022-08-12T02:08:12.113Z,794.00
2022-08-12T02:09:11.173Z,814.00
2022-08-12T02:10:50.642Z,813.00
2022-08-12T02:11:12.379Z,812.00
2022-08-12T02:12:13.675Z,814.00
2022-08-12T02:13:14.347Z,812.00
2022-08-12T02:14:13.932Z,813.00
2022-08-12T02:15:15.733Z,814.00
2022-08-12T02:16:16.509Z,766.00
2022-08-12T02:17:16.554Z,812.00
2022-08-12T02:18:16.198Z,801.00
2022-08-12T02:19:23.098Z,796.00
2022-08-12T02:20:16.873Z,811.00
2022-08-12T02:21:18.428Z,816.00
2022-08-12T02:21:27.105Z,807.00
2022-08-12T02:22:27.949Z,820.00
2022-08-12T02:23:29.696Z,818.00
2022-08-12T02:24:30.142Z,814.00
2022-08-12T02:25:31.034Z,814.00
2022-08-12T02:26:31.582Z,814.00
2022-08-12T02:27:31.039Z,820.00
2022-08-12T02:28:31.393Z,819.00
2022-08-12T02:29:33.199Z,814.00
2022-08-12T02:30:41.865Z,814.00
2022-08-12T02:31:33.876Z,812.00
2022-08-12T02:32:35.042Z,813.00
2022-08-12T02:33:34.874Z,813.00
2022-08-12T02:34:36.158Z,814.00
2022-08-12T02:35:37.067Z,813.00
2022-08-12T02:36:37.506Z,786.00
2022-08-12T02:37:38.313Z,814.00
2022-08-12T02:38:39.217Z,818.00
2022-08-12T02:39:39.245Z,817.00
2022-08-12T02:40:38.956Z,816.00
2022-08-12T02:40:48.067Z,807.00
2022-08-12T02:41:49.848Z,807.00
2022-08-12T02:42:50.495Z,819.00
2022-08-12T02:43:50.984Z,817.00
2022-08-12T02:44:51.640Z,816.00
2022-08-12T02:45:52.050Z,817.00
2022-08-12T02:46:52.745Z,818.00
2022-08-12T02:47:59.261Z,806.00
2022-08-12T02:48:52.994Z,816.00
2022-08-12T02:49:54.554Z,814.00
2022-08-12T02:50:55.061Z,814.00
2022-08-12T02:51:55.517Z,801.00
2022-08-12T02:52:56.438Z,814.00
2022-08-12T02:54:04.839Z,785.00
2022-08-12T02:54:56.778Z,816.00
2022-08-12T02:55:58.280Z,813.00
2022-08-12T02:56:58.582Z,816.00
2022-08-12T02:57:58.721Z,814.00
2022-08-12T02:58:58.347Z,814.00
2022-08-12T03:00:00.046Z,813.00
2022-08-12T03:00:59.830Z,813.00
2022-08-12T03:02:00.560Z,812.00
2022-08-12T03:03:01.438Z,812.00
2022-08-12T03:03:11.616Z,812.00
2022-08-12T03:04:15.409Z,812.00
2022-08-12T03:05:13.168Z,795.00
2022-08-12T03:06:13.756Z,814.00
2022-08-12T03:07:14.434Z,813.00
2022-08-12T03:08:31.966Z,813.00
2022-08-12T03:09:16.539Z,813.00
2022-08-12T03:10:18.107Z,793.00
2022-08-12T03:11:17.336Z,812.00
2022-08-12T03:12:19.967Z,811.00
2022-08-12T03:13:17.872Z,801.00
2022-08-12T03:14:19.028Z,800.00
2022-08-12T03:15:21.974Z,804.00
2022-08-12T03:16:18.787Z,804.00
2022-08-12T03:17:19.177Z,813.00
2022-08-12T03:18:25.869Z,813.00
2022-08-12T03:19:20.162Z,805.00
2022-08-12T03:20:24.463Z,816.00
2022-08-12T03:22:03.841Z,817.00
2022-08-12T03:22:21.611Z,816.00
2022-08-12T03:23:29.704Z,816.00
2022-08-12T03:24:22.818Z,805.00
2022-08-12T03:25:24.608Z,816.00
2022-08-12T03:26:25.354Z,818.00
2022-08-12T03:26:34.070Z,818.00
2022-08-12T03:27:35.178Z,819.00
2022-08-12T03:28:35.974Z,817.00
2022-08-12T03:29:49.753Z,819.00
2022-08-12T03:30:35.181Z,821.00
2022-08-12T03:31:37.084Z,817.00
2022-08-12T03:32:37.762Z,819.00
2022-08-12T03:33:37.904Z,820.00
2022-08-12T03:34:38.399Z,819.00
2022-08-12T03:35:40.874Z,812.00
2022-08-12T03:36:38.336Z,819.00
2022-08-12T03:37:39.542Z,813.00
2022-08-12T03:38:39.879Z,816.00
2022-08-12T03:39:40.453Z,814.00
2022-08-12T03:40:39.426Z,814.00
2022-08-12T03:41:40.523Z,812.00
2022-08-12T03:42:40.580Z,814.00
2022-08-12T03:43:41.216Z,813.00
2022-08-12T03:44:41.685Z,814.00
2022-08-12T03:45:52.666Z,811.00
2022-08-12T03:46:42.972Z,814.00
2022-08-12T03:47:43.566Z,814.00
2022-08-12T03:48:43.824Z,816.00
2022-08-12T03:48:54.521Z,814.00
2022-08-12T03:49:55.441Z,807.00
2022-08-12T03:50:56.589Z,807.00
2022-08-12T03:51:57.291Z,806.00
2022-08-12T03:52:58.048Z,818.00
2022-08-12T03:53:58.611Z,816.00
2022-08-12T03:54:58.041Z,817.00
2022-08-12T03:55:59.801Z,818.00
2022-08-12T03:56:59.572Z,819.00
2022-08-12T03:58:01.379Z,820.00
2022-08-12T03:59:01.936Z,821.00
2022-08-12T04:00:02.226Z,820.00
2022-08-12T04:01:03.163Z,810.00
2022-08-12T04:02:02.522Z,808.00
2022-08-12T04:03:04.064Z,808.00
2022-08-12T04:04:04.605Z,817.00
2022-08-12T04:05:05.586Z,806.00
2022-08-12T04:06:05.400Z,814.00
2022-08-12T04:07:05.791Z,814.00
2022-08-12T04:08:07.468Z,812.00
2022-08-12T04:09:16.225Z,812.00
2022-08-12T04:09:18.422Z,811.00
2022-08-12T04:10:18.371Z,813.00
2022-08-12T04:11:20.016Z,812.00
2022-08-12T04:12:20.636Z,814.00
2022-08-12T04:13:20.594Z,813.00
2022-08-12T04:14:22.338Z,814.00
2022-08-12T04:15:21.803Z,816.00
2022-08-12T04:16:23.602Z,814.00
2022-08-12T04:17:23.833Z,812.00
2022-08-12T04:18:24.457Z,811.00
2022-08-12T04:19:25.374Z,801.00
2022-08-12T04:20:24.822Z,810.00
2022-08-12T04:21:26.021Z,793.00
2022-08-12T04:22:26.468Z,812.00
2022-08-12T04:23:27.073Z,817.00
2022-08-12T04:24:28.480Z,819.00
2022-08-12T04:25:27.834Z,812.00
2022-08-12T04:26:28.090Z,813.00
2022-08-12T04:27:28.812Z,814.00
2022-08-12T04:28:30.652Z,814.00
2022-08-12T04:30:17.097Z,816.00
2022-08-12T04:30:33.646Z,817.00
2022-08-12T04:31:30.828Z,817.00
2022-08-12T04:32:32.857Z,817.00
2022-08-12T04:32:44.443Z,810.00
2022-08-12T04:33:41.488Z,820.00
2022-08-12T04:34:42.741Z,819.00
2022-08-12T04:35:42.460Z,814.00
2022-08-12T04:36:43.906Z,816.00
2022-08-12T04:37:58.184Z,816.00
2022-08-12T04:38:44.324Z,818.00
2022-08-12T04:39:46.295Z,814.00
2022-08-12T04:40:45.970Z,776.00
2022-08-12T04:41:56.207Z,819.00
2022-08-12T04:42:47.145Z,816.00
2022-08-12T04:44:01.423Z,822.00
2022-08-12T04:44:48.854Z,792.00
2022-08-12T04:45:49.574Z,822.00
2022-08-12T04:46:54.448Z,822.00
2022-08-12T04:47:51.098Z,821.00
2022-08-12T04:48:52.829Z,821.00
2022-08-12T04:49:53.389Z,821.00
2022-08-12T04:50:53.311Z,777.00
2022-08-12T04:51:59.259Z,823.00
2022-08-12T04:52:54.136Z,822.00
2022-08-12T04:53:56.088Z,820.00
2022-08-12T04:54:56.258Z,822.00
2022-08-12T04:55:09.436Z,814.00
2022-08-12T04:56:10.988Z,812.00
2022-08-12T04:57:11.206Z,820.00
2022-08-12T04:58:11.716Z,811.00
2022-08-12T04:59:11.203Z,811.00
2022-08-12T05:00:13.645Z,820.00
2022-08-12T05:01:12.184Z,818.00
2022-08-12T05:02:16.535Z,818.00
2022-08-12T05:03:13.063Z,802.00
2022-08-12T05:04:14.555Z,820.00
2022-08-12T05:05:15.089Z,818.00
2022-08-12T05:06:26.555Z,816.00
2022-08-12T05:07:15.261Z,801.00
2022-08-12T05:08:16.835Z,814.00
2022-08-12T05:09:17.410Z,812.00
2022-08-12T05:10:16.457Z,814.00
2022-08-12T05:11:17.761Z,785.00
2022-08-12T05:12:17.247Z,782.00
2022-08-12T05:13:18.429Z,820.00
2022-08-12T05:14:19.376Z,774.00
2022-08-12T05:15:29.214Z,820.00
2022-08-12T05:15:30.369Z,819.00
2022-08-12T05:16:34.190Z,821.00
2022-08-12T05:17:31.489Z,819.00
2022-08-12T05:18:32.057Z,816.00
2022-08-12T05:19:33.347Z,814.00
2022-08-12T05:20:33.178Z,812.00
2022-08-12T05:21:34.972Z,812.00
2022-08-12T05:22:37.125Z,810.00
2022-08-12T05:23:34.886Z,805.00
2022-08-12T05:24:36.343Z,801.00
2022-08-12T05:25:36.629Z,801.00
2022-08-12T05:26:37.224Z,797.00
2022-08-12T05:27:37.262Z,794.00
2022-08-12T05:28:37.655Z,796.00
2022-08-12T05:30:07.560Z,788.00
2022-08-12T05:30:37.792Z,793.00
2022-08-12T05:31:47.682Z,793.00
2022-08-12T05:32:39.646Z,793.00
2022-08-12T05:33:39.534Z,788.00
2022-08-12T05:34:40.247Z,784.00
2022-08-12T05:35:41.374Z,776.00
2022-08-12T05:36:42.134Z,778.00
2022-08-12T05:37:41.732Z,782.00
2022-08-12T05:38:42.518Z,776.00
2022-08-12T05:38:51.270Z,782.00
2022-08-12T05:39:51.704Z,775.00
2022-08-12T05:40:51.983Z,778.00
2022-08-12T05:41:52.247Z,776.00
2022-08-12T05:42:53.739Z,774.00
2022-08-12T05:43:54.641Z,774.00
2022-08-12T05:44:55.402Z,774.00
2022-08-12T05:45:56.212Z,769.00
2022-08-12T05:46:55.929Z,770.00
2022-08-12T05:47:57.490Z,771.00
2022-08-12T05:48:58.151Z,765.00
2022-08-12T05:49:57.673Z,749.00
2022-08-12T05:50:59.363Z,750.00
2022-08-12T05:51:59.236Z,749.00
2022-08-12T05:53:01.095Z,753.00
2022-08-12T05:54:00.483Z,750.00
2022-08-12T05:55:01.817Z,747.00
2022-08-12T05:56:02.756Z,756.00
2022-08-12T05:57:02.529Z,750.00
2022-08-12T05:58:03.241Z,751.00
2022-08-12T05:59:03.673Z,742.00
2022-08-12T06:00:03.816Z,749.00
2022-08-12T06:00:15.529Z,748.00
2022-08-12T06:02:10.006Z,752.00
2022-08-12T06:02:16.474Z,758.00
2022-08-12T06:03:19.484Z,756.00
2022-08-12T06:04:17.341Z,759.00
2022-08-12T06:05:18.423Z,754.00
2022-08-12T06:06:19.124Z,760.00
2022-08-12T06:08:00.423Z,761.00
2022-08-12T06:08:19.146Z,759.00
2022-08-12T06:09:20.789Z,758.00
2022-08-12T06:10:31.618Z,758.00
2022-08-12T06:11:20.920Z,756.00
2022-08-12T06:12:22.598Z,750.00
2022-08-12T06:13:28.186Z,747.00
2022-08-12T06:14:23.341Z,749.00
2022-08-12T06:15:23.511Z,748.00
2022-08-12T06:16:24.880Z,747.00
2022-08-12T06:17:25.614Z,753.00
2022-08-12T06:18:29.626Z,712.00
2022-08-12T06:19:24.689Z,750.00
2022-08-12T06:20:29.932Z,747.00
2022-08-12T06:21:25.606Z,753.00
2022-08-12T06:22:25.645Z,759.00
2022-08-12T06:22:35.429Z,760.00
2022-08-12T06:23:38.114Z,757.00
2022-08-12T06:24:35.493Z,747.00
2022-08-12T06:25:36.932Z,753.00
2022-08-12T06:26:35.940Z,752.00
2022-08-12T06:27:36.741Z,750.00
2022-08-12T06:28:37.731Z,748.00
2022-08-12T06:30:09.343Z,747.00
2022-08-12T06:30:39.840Z,748.00
2022-08-12T06:31:38.839Z,745.00
2022-08-12T06:32:51.912Z,746.00
2022-08-12T06:34:00.738Z,745.00
2022-08-12T06:35:27.247Z,742.00
2022-08-12T06:35:48.657Z,740.00
2022-08-12T06:36:40.892Z,730.00
2022-08-12T06:37:41.615Z,735.00
2022-08-12T06:38:42.572Z,738.00
2022-08-12T06:39:44.264Z,748.00
2022-08-12T06:40:43.766Z,754.00
2022-08-12T06:42:05.191Z,757.00
2022-08-12T06:42:44.928Z,748.00
2022-08-12T06:44:04.923Z,748.00
2022-08-12T06:44:45.991Z,749.00
2022-08-12T06:45:47.468Z,747.00
2022-08-12T06:46:47.470Z,746.00
2022-08-12T06:47:47.709Z,732.00
2022-08-12T06:47:58.372Z,744.00
2022-08-12T06:48:59.689Z,744.00
2022-08-12T06:49:59.239Z,741.00
2022-08-12T06:51:00.028Z,741.00
2022-08-12T06:52:01.091Z,741.00
2022-08-12T06:53:01.474Z,740.00
2022-08-12T06:54:02.141Z,744.00
2022-08-12T06:55:02.600Z,741.00
2022-08-12T06:56:01.766Z,740.00
2022-08-12T06:57:57.174Z,745.00
2022-08-12T06:58:07.863Z,750.00
2022-08-12T06:59:03.806Z,759.00
2022-08-12T07:00:03.984Z,754.00
2022-08-12T07:01:05.573Z,748.00
2022-08-12T07:02:05.169Z,747.00
2022-08-12T07:03:16.314Z,745.00
2022-08-12T07:04:26.336Z,744.00
2022-08-12T07:05:05.683Z,742.00
2022-08-12T07:06:06.303Z,741.00
2022-08-12T07:07:07.799Z,752.00
2022-08-12T07:08:07.946Z,756.00
2022-08-12T07:09:07.347Z,746.00
2022-08-12T07:10:08.854Z,747.00
2022-08-12T07:11:07.866Z,745.00
2022-08-12T07:12:08.711Z,740.00
2022-08-12T07:12:19.108Z,740.00
2022-08-12T07:13:20.950Z,739.00
2022-08-12T07:14:21.079Z,727.00
2022-08-12T07:15:21.104Z,740.00
2022-08-12T07:16:20.938Z,736.00
2022-08-12T07:17:22.788Z,729.00
2022-08-12T07:18:23.499Z,736.00
2022-08-12T07:19:23.958Z,735.00
2022-08-12T07:20:50.796Z,726.00
2022-08-12T07:21:24.217Z,732.00
2022-08-12T07:22:24.629Z,715.00
2022-08-12T07:23:25.284Z,736.00
2022-08-12T07:24:26.769Z,739.00
2022-08-12T07:25:27.045Z,736.00
2022-08-12T07:26:27.896Z,730.00
2022-08-12T07:27:27.837Z,740.00
2022-08-12T07:28:28.340Z,741.00
2022-08-12T07:30:02.969Z,739.00
2022-08-12T07:30:30.043Z,737.00
2022-08-12T07:31:31.431Z,739.00
2022-08-12T07:32:31.483Z,736.00
2022-08-12T07:33:32.317Z,735.00
2022-08-12T07:34:33.531Z,745.00
2022-08-12T07:34:42.309Z,735.00
2022-08-12T07:35:42.668Z,738.00
2022-08-12T07:36:44.326Z,739.00
2022-08-12T07:37:45.274Z,740.00
2022-08-12T07:38:44.981Z,729.00
2022-08-12T07:39:50.709Z,747.00
2022-08-12T07:40:46.186Z,752.00
2022-08-12T07:41:48.065Z,747.00
2022-08-12T07:42:48.684Z,740.00
2022-08-12T07:43:49.205Z,748.00
2022-08-12T07:44:51.727Z,748.00
2022-08-12T07:45:49.440Z,753.00
2022-08-12T07:46:50.404Z,753.00
2022-08-12T07:47:51.482Z,750.00
2022-08-12T07:48:52.327Z,749.00
2022-08-12T07:50:04.774Z,752.00
2022-08-12T07:50:52.394Z,753.00
2022-08-12T07:51:53.814Z,744.00
2022-08-12T07:52:53.878Z,754.00
2022-08-12T07:54:00.689Z,756.00
2022-08-12T07:54:53.589Z,756.00
2022-08-12T07:55:55.364Z,760.00
2022-08-12T07:56:04.070Z,759.00
2022-08-12T07:57:04.107Z,763.00
2022-08-12T07:58:05.784Z,762.00
2022-08-12T07:59:04.907Z,762.00
2022-08-12T08:00:06.740Z,749.00
2022-08-12T08:01:12.015Z,745.00
2022-08-12T08:02:06.582Z,765.00
2022-08-12T08:03:07.274Z,757.00
2022-08-12T08:04:08.733Z,760.00
2022-08-12T08:05:09.043Z,766.00
2022-08-12T08:06:09.813Z,766.00
2022-08-12T08:07:09.742Z,769.00
2022-08-12T08:08:10.164Z,768.00
2022-08-12T08:09:12.144Z,733.00
2022-08-12T08:10:11.468Z,769.00
2022-08-12T08:11:11.978Z,768.00
2022-08-12T08:12:19.369Z,759.00
2022-08-12T08:13:13.005Z,777.00
2022-08-12T08:14:14.500Z,780.00
2022-08-12T08:15:14.548Z,777.00
2022-08-12T08:16:13.720Z,773.00
2022-08-12T08:17:14.963Z,774.00
2022-08-12T08:18:26.259Z,769.00
2022-08-12T08:18:26.308Z,773.00
2022-08-12T08:19:24.459Z,739.00
2022-08-12T08:20:26.410Z,768.00
2022-08-12T08:21:26.548Z,770.00
2022-08-12T08:22:40.627Z,769.00
2022-08-12T08:23:29.220Z,768.00
2022-08-12T08:24:26.654Z,773.00
2022-08-12T08:25:35.915Z,776.00
2022-08-12T08:26:27.384Z,776.00
2022-08-12T08:27:27.493Z,775.00
2022-08-12T08:28:28.996Z,773.00
2022-08-12T08:29:29.512Z,773.00
2022-08-12T08:30:29.045Z,776.00
2022-08-12T08:31:29.425Z,782.00
2022-08-12T08:32:30.808Z,782.00
2022-08-12T08:34:05.181Z,780.00
2022-08-12T08:34:54.200Z,782.00
2022-08-12T08:35:47.024Z,785.00
2022-08-12T08:36:30.913Z,778.00
2022-08-12T08:37:33.078Z,783.00
2022-08-12T08:38:35.227Z,783.00
2022-08-12T08:39:32.301Z,781.00
2022-08-12T08:40:32.523Z,717.00
2022-08-12T08:42:16.579Z,785.00
2022-08-12T08:42:33.594Z,768.00
2022-08-12T08:42:42.448Z,777.00
2022-08-12T08:43:44.413Z,776.00
2022-08-12T08:44:43.308Z,775.00
2022-08-12T08:45:44.873Z,774.00
2022-08-12T08:46:45.773Z,775.00
2022-08-12T08:47:46.602Z,762.00
2022-08-12T08:48:47.198Z,780.00
2022-08-12T08:49:46.881Z,778.00
2022-08-12T08:51:04.322Z,777.00
2022-08-12T08:51:47.641Z,782.00
2022-08-12T08:52:48.503Z,786.00
2022-08-12T08:53:52.916Z,793.00
2022-08-12T08:54:49.467Z,789.00
2022-08-12T08:56:04.666Z,750.00
2022-08-12T08:56:50.580Z,787.00
2022-08-12T08:57:51.942Z,793.00
2022-08-12T08:58:51.835Z,794.00
2022-08-12T08:59:51.868Z,787.00
2022-08-12T09:00:52.080Z,786.00
2022-08-12T09:01:54.002Z,786.00
2022-08-12T09:02:58.439Z,782.00
2022-08-12T09:05:12.892Z,784.00
2022-08-12T09:05:14.490Z,786.00
2022-08-12T09:06:55.988Z,788.00
2022-08-12T09:08:08.835Z,792.00
2022-08-12T09:08:14.307Z,792.00
2022-08-12T09:09:13.234Z,792.00
2022-08-12T09:10:15.687Z,785.00
2022-08-12T09:11:07.125Z,782.00
2022-08-12T09:12:12.248Z,780.00
2022-08-12T09:13:08.056Z,775.00
2022-08-12T09:14:10.505Z,761.00
2022-08-12T09:16:09.143Z,761.00
2022-08-12T09:17:10.126Z,773.00
2022-08-12T09:18:10.960Z,775.00
2022-08-12T09:19:27.193Z,778.00
2022-08-12T09:21:12.287Z,777.00
2022-08-12T09:22:18.530Z,778.00
2022-08-12T09:23:57.107Z,777.00
2022-08-12T09:24:16.314Z,774.00
2022-08-12T09:25:25.492Z,769.00
2022-08-12T09:26:15.225Z,775.00
2022-08-12T09:27:16.036Z,775.00
2022-08-12T09:28:18.169Z,773.00
2022-08-12T09:29:17.381Z,775.00
2022-08-12T09:30:18.320Z,776.00
2022-08-12T09:32:03.990Z,777.00
2022-08-12T09:32:56.032Z,775.00
2022-08-12T09:34:28.388Z,776.00
2022-08-12T09:34:28.602Z,775.00
2022-08-12T09:35:22.598Z,773.00
2022-08-12T09:36:31.331Z,778.00
2022-08-12T09:37:22.626Z,780.00
2022-08-12T09:38:29.864Z,778.00
2022-08-12T09:40:01.762Z,758.00
2022-08-12T09:41:02.569Z,783.00
2022-08-12T09:41:03.835Z,784.00
2022-08-12T09:42:34.189Z,785.00
2022-08-12T09:42:43.577Z,770.00
2022-08-12T09:43:34.654Z,768.00
2022-08-12T09:44:38.617Z,774.00
2022-08-12T09:46:11.466Z,778.00
2022-08-12T09:46:36.137Z,780.00
2022-08-12T09:47:36.454Z,776.00
2022-08-12T09:48:39.344Z,776.00
2022-08-12T09:49:42.309Z,769.00
2022-08-12T09:50:38.124Z,775.00
2022-08-12T09:51:44.090Z,778.00
2022-08-12T09:52:39.544Z,778.00
2022-08-12T09:53:40.047Z,775.00
2022-08-12T09:54:42.679Z,774.00
2022-08-12T09:56:07.290Z,753.00
2022-08-12T09:57:02.133Z,721.00
2022-08-12T09:58:08.162Z,776.00
2022-08-12T09:58:56.620Z,771.00
2022-08-12T10:00:14.810Z,778.00
2022-08-12T10:00:51.812Z,778.00
2022-08-12T10:02:43.108Z,773.00
2022-08-12T10:02:49.613Z,782.00
2022-08-12T10:03:55.468Z,784.00
2022-08-12T10:04:51.437Z,784.00
2022-08-12T10:06:19.810Z,785.00
2022-08-12T10:06:54.337Z,785.00
2022-08-12T10:07:46.349Z,785.00
2022-08-12T10:08:52.675Z,785.00
2022-08-12T10:09:58.341Z,763.00
2022-08-12T10:10:47.990Z,782.00
2022-08-12T10:12:11.113Z,782.00
2022-08-12T10:12:11.322Z,782.00
2022-08-12T10:13:07.015Z,772.00
2022-08-12T10:13:57.570Z,776.00
2022-08-12T10:14:59.158Z,777.00
2022-08-12T10:16:02.308Z,775.00
2022-08-12T10:16:59.217Z,774.00
2022-08-12T10:18:06.317Z,776.00
2022-08-12T10:19:00.336Z,778.00
2022-08-12T10:20:02.066Z,775.00
2022-08-12T10:21:01.602Z,764.00
2022-08-12T10:22:03.322Z,777.00
2022-08-12T10:23:03.792Z,776.00
2022-08-12T10:24:02.909Z,763.00
2022-08-12T10:25:04.253Z,773.00
2022-08-12T10:26:34.417Z,769.00
2022-08-12T10:27:05.707Z,769.00
2022-08-12T10:28:09.818Z,768.00
2022-08-12T10:30:01.076Z,766.00
2022-08-12T10:30:40.189Z,768.00
2022-08-12T10:31:06.034Z,772.00
2022-08-12T10:32:21.337Z,765.00
2022-08-12T10:33:19.102Z,768.00
2022-08-12T10:34:14.949Z,742.00
2022-08-12T10:35:09.251Z,766.00
2022-08-12T10:36:09.760Z,717.00
2022-08-12T10:38:05.695Z,763.00
2022-08-12T10:38:33.802Z,754.00
2022-08-12T10:38:35.041Z,754.00
2022-08-12T10:40:00.140Z,759.00
2022-08-12T10:40:22.007Z,764.00
2022-08-12T10:41:21.119Z,765.00
2022-08-12T10:42:29.241Z,754.00
2022-08-12T10:43:22.301Z,758.00
2022-08-12T10:44:23.671Z,750.00
2022-08-12T10:45:23.898Z,748.00
2022-08-12T10:46:24.081Z,749.00
2022-08-12T10:47:26.112Z,751.00
2022-08-12T10:48:26.993Z,742.00
2022-08-12T10:50:03.143Z,758.00
2022-08-12T10:50:35.961Z,758.00
2022-08-12T10:52:03.752Z,732.00
2022-08-12T10:52:33.047Z,758.00
2022-08-12T10:53:44.304Z,763.00
2022-08-12T10:54:29.387Z,764.00
2022-08-12T10:55:30.225Z,769.00
2022-08-12T10:56:34.258Z,761.00
2022-08-12T10:58:14.837Z,734.00
2022-08-12T10:58:31.992Z,766.00
2022-08-12T11:00:31.699Z,760.00
2022-08-12T11:00:35.472Z,764.00
2022-08-12T11:04:17.188Z,765.00
2022-08-12T11:04:20.569Z,768.00
2022-08-12T11:04:28.236Z,762.00
2022-08-12T11:04:45.636Z,738.00
2022-08-12T11:07:06.816Z,770.00
2022-08-12T11:07:09.589Z,770.00
2022-08-12T11:08:33.745Z,770.00
2022-08-12T11:08:41.960Z,771.00
2022-08-12T11:08:47.227Z,769.00
2022-08-12T11:09:55.982Z,769.00
2022-08-12T11:10:47.406Z,765.00
2022-08-12T11:12:34.713Z,766.00
2022-08-12T11:12:58.539Z,768.00
2022-08-12T11:13:48.889Z,769.00
2022-08-12T11:14:51.219Z,757.00
2022-08-12T11:16:19.578Z,772.00
2022-08-12T11:17:43.711Z,745.00
2022-08-12T11:17:53.564Z,765.00
2022-08-12T11:18:55.583Z,768.00
2022-08-12T11:19:51.031Z,776.00
2022-08-12T11:20:52.316Z,774.00
2022-08-12T11:21:58.179Z,773.00
2022-08-12T11:22:58.568Z,770.00
2022-08-12T11:23:53.373Z,749.00
2022-08-12T11:24:53.844Z,754.00
2022-08-12T11:25:57.592Z,762.00
2022-08-12T11:26:53.967Z,763.00
2022-08-12T11:27:53.911Z,769.00
2022-08-12T11:28:59.389Z,770.00
2022-08-12T11:30:05.415Z,765.00
2022-08-12T11:30:56.116Z,769.00
2022-08-12T11:32:02.350Z,768.00
2022-08-12T11:32:57.630Z,770.00
2022-08-12T11:34:06.139Z,768.00
2022-08-12T11:34:59.328Z,766.00
2022-08-12T11:35:59.840Z,765.00
2022-08-12T11:36:58.588Z,763.00
2022-08-12T11:37:59.963Z,757.00
2022-08-12T11:39:04.284Z,764.00
2022-08-12T11:39:59.797Z,766.00
2022-08-12T11:41:10.305Z,754.00
2022-08-12T11:42:09.377Z,765.00
2022-08-12T11:43:19.202Z,768.00
2022-08-12T11:44:36.722Z,766.00
2022-08-12T11:45:10.738Z,765.00
2022-08-12T11:46:11.015Z,758.00
2022-08-12T11:47:11.268Z,739.00
2022-08-12T11:48:11.992Z,775.00
2022-08-12T11:49:12.829Z,774.00
2022-08-12T11:50:19.072Z,736.00
2022-08-12T11:51:14.700Z,578.00
2022-08-12T11:52:26.524Z,726.00
2022-08-12T11:53:56.545Z,748.00
2022-08-12T11:54:15.249Z,765.00
2022-08-12T11:55:16.246Z,757.00
2022-08-12T11:56:17.135Z,768.00
2022-08-12T11:58:07.163Z,765.00
2022-08-12T11:58:36.546Z,754.00
2022-08-12T12:02:02.218Z,766.00
2022-08-12T12:02:21.502Z,759.00
2022-08-12T12:03:23.110Z,764.00
2022-08-12T12:04:28.802Z,749.00
2022-08-12T12:05:22.929Z,760.00
2022-08-12T12:06:23.693Z,736.00
2022-08-12T12:08:36.756Z,758.00
2022-08-12T12:08:41.041Z,756.00
2022-08-12T12:09:24.455Z,758.00
2022-08-12T12:09:52.560Z,759.00
2022-08-12T12:10:33.932Z,760.00
2022-08-12T12:11:48.958Z,763.00
2022-08-12T12:12:34.441Z,768.00
2022-08-12T12:14:07.783Z,760.00
2022-08-12T12:14:37.880Z,763.00
2022-08-12T12:15:40.957Z,769.00